Time,TemperatureF,DewpointF,PressureIn,WindDirection,WindDirectionDegrees,WindSpeedMPH,WindSpeedGustMPH,Humidity,HourlyPrecipIn,Conditions,Clouds,dailyrainin,SolarRadiationWatts/m^2,SoftwareType,DateUTC
2013-04-04 00:22:00,44.0,32.0,-100.00,NNE,23,7.0,14.0,62,0.00,,,0.00,0.000000,,2013-04-04 06:22:00,
2013-04-04 00:32:00,44.0,32.0,-100.00,NNE,23,7.0,14.0,62,0.00,,,0.00,0.000000,,2013-04-04 06:32:00,
2013-04-04 00:42:00,44.0,32.0,-100.00,NNE,23,7.0,14.0,62,0.00,,,0.00,0.000000,,2013-04-04 06:42:00,
2013-04-04 00:52:00,44.0,32.0,-100.00,NNE,23,7.0,14.0,62,0.00,,,0.00,0.000000,,2013-04-04 06:52:00,
2013-04-04 01:22:00,41.0,29.0,-100.00,SW,214,4.0,11.0,63,0.00,,,0.00,0.000000,,2013-04-04 07:22:00,
2013-04-04 01:32:00,41.0,29.0,-100.00,SW,214,4.0,11.0,63,0.00,,,0.00,0.000000,,2013-04-04 07:32:00,
2013-04-04 01:43:00,41.0,29.0,-100.00,SW,214,4.0,11.0,63,0.00,,,0.00,0.000000,,2013-04-04 07:43:00,
2013-04-04 01:52:00,41.0,29.0,-100.00,SW,214,4.0,11.0,63,0.00,,,0.00,0.000000,,2013-04-04 07:52:00,
2013-04-04 02:23:00,40.0,23.0,-100.00,West,267,8.0,17.0,51,0.00,,,0.00,0.000000,,2013-04-04 08:23:00,
2013-04-04 02:32:00,40.0,23.0,-100.00,West,267,8.0,17.0,51,0.00,,,0.00,0.000000,,2013-04-04 08:32:00,
2013-04-04 02:43:00,40.0,23.0,-100.00,West,267,8.0,17.0,51,0.00,,,0.00,0.000000,,2013-04-04 08:43:00,
2013-04-04 02:52:00,40.0,23.0,-100.00,West,267,8.0,17.0,51,0.00,,,0.00,0.000000,,2013-04-04 08:52:00,
2013-04-04 03:22:00,39.0,22.0,-100.00,WNW,282,6.0,19.0,51,0.00,,,0.00,0.000000,,2013-04-04 09:22:00,
2013-04-04 03:33:00,39.0,22.0,-100.00,WNW,282,6.0,19.0,51,0.00,,,0.00,0.000000,,2013-04-04 09:33:00,
2013-04-04 03:43:00,39.0,22.0,-100.00,WNW,282,6.0,19.0,51,0.00,,,0.00,0.000000,,2013-04-04 09:43:00,
2013-04-04 03:53:00,39.0,22.0,-100.00,WNW,282,6.0,19.0,51,0.00,,,0.00,0.000000,,2013-04-04 09:53:00,
2013-04-04 04:24:00,38.0,23.0,-100.00,West,270,6.0,14.0,54,0.00,,,0.00,0.000000,,2013-04-04 10:24:00,
2013-04-04 04:33:00,38.0,23.0,-100.00,West,270,6.0,14.0,54,0.00,,,0.00,0.000000,,2013-04-04 10:33:00,
2013-04-04 04:42:00,38.0,23.0,-100.00,West,270,6.0,14.0,54,0.00,,,0.00,0.000000,,2013-04-04 10:42:00,
2013-04-04 04:53:00,38.0,23.0,-100.00,West,270,6.0,14.0,54,0.00,,,0.00,0.000000,,2013-04-04 10:53:00,
2013-04-04 05:22:00,38.0,22.0,-100.00,ESE,119,4.0,11.0,51,0.00,,,0.00,0.000000,,2013-04-04 11:22:00,
2013-04-04 05:33:00,38.0,22.0,-100.00,ESE,119,4.0,11.0,51,0.00,,,0.00,0.000000,,2013-04-04 11:33:00,
2013-04-04 05:42:00,38.0,22.0,-100.00,ESE,119,4.0,11.0,51,0.00,,,0.00,0.000000,,2013-04-04 11:42:00,
2013-04-04 05:53:00,38.0,22.0,-100.00,ESE,119,4.0,11.0,51,0.00,,,0.00,0.000000,,2013-04-04 11:53:00,
2013-04-04 06:22:00,37.0,22.0,-100.00,North,353,3.0,14.0,55,0.00,,,0.00,0.000000,,2013-04-04 12:22:00,
2013-04-04 06:32:00,37.0,22.0,-100.00,North,353,3.0,14.0,55,0.00,,,0.00,0.000000,,2013-04-04 12:32:00,
2013-04-04 06:52:00,37.0,22.0,-100.00,North,353,3.0,14.0,55,0.00,,,0.00,0.000000,,2013-04-04 12:52:00,
2013-04-04 07:22:00,34.0,22.0,-100.00,South,173,1.0,6.0,60,0.00,,,0.00,6.000000,,2013-04-04 13:22:00,
2013-04-04 07:32:00,34.0,22.0,-100.00,South,173,1.0,6.0,60,0.00,,,0.00,6.000000,,2013-04-04 13:32:00,
2013-04-04 07:42:00,34.0,22.0,-100.00,South,173,1.0,6.0,60,0.00,,,0.00,6.000000,,2013-04-04 13:42:00,
2013-04-04 07:52:00,34.0,22.0,-100.00,South,173,1.0,6.0,60,0.00,,,0.00,6.000000,,2013-04-04 13:52:00,
2013-04-04 08:22:00,39.0,23.0,-100.00,South,190,1.0,3.0,53,0.00,,,0.00,94.000000,,2013-04-04 14:22:00,
2013-04-04 08:33:00,39.0,23.0,-100.00,South,190,1.0,3.0,53,0.00,,,0.00,94.000000,,2013-04-04 14:33:00,
2013-04-04 08:42:00,39.0,23.0,-100.00,South,190,1.0,3.0,53,0.00,,,0.00,94.000000,,2013-04-04 14:42:00,
2013-04-04 08:52:00,39.0,23.0,-100.00,South,190,1.0,3.0,53,0.00,,,0.00,94.000000,,2013-04-04 14:52:00,
2013-04-04 09:23:00,44.0,26.0,-100.00,East,81,3.0,6.0,48,0.00,,,0.00,321.000000,,2013-04-04 15:23:00,
2013-04-04 09:33:00,44.0,26.0,-100.00,East,81,3.0,6.0,48,0.00,,,0.00,321.000000,,2013-04-04 15:33:00,
2013-04-04 09:43:00,44.0,26.0,-100.00,East,81,3.0,6.0,48,0.00,,,0.00,321.000000,,2013-04-04 15:43:00,
2013-04-04 09:53:00,44.0,26.0,-100.00,East,81,3.0,6.0,48,0.00,,,0.00,321.000000,,2013-04-04 15:53:00,
2013-04-04 10:24:00,46.0,25.0,-100.00,SSE,157,5.0,11.0,44,0.00,,,0.00,482.000000,,2013-04-04 16:24:00,
2013-04-04 10:32:00,46.0,25.0,-100.00,SSE,157,5.0,11.0,44,0.00,,,0.00,482.000000,,2013-04-04 16:32:00,
2013-04-04 10:42:00,46.0,25.0,-100.00,SSE,157,5.0,11.0,44,0.00,,,0.00,482.000000,,2013-04-04 16:42:00,
2013-04-04 10:53:00,46.0,25.0,-100.00,SSE,157,5.0,11.0,44,0.00,,,0.00,482.000000,,2013-04-04 16:53:00,
2013-04-04 11:23:00,51.0,25.0,-100.00,SSE,166,5.0,12.0,36,0.00,,,0.00,657.000000,,2013-04-04 17:23:00,
2013-04-04 11:33:00,51.0,25.0,-100.00,SSE,166,5.0,12.0,36,0.00,,,0.00,657.000000,,2013-04-04 17:33:00,
2013-04-04 11:42:00,51.0,25.0,-100.00,SSE,166,5.0,12.0,36,0.00,,,0.00,657.000000,,2013-04-04 17:42:00,
2013-04-04 11:52:00,51.0,25.0,-100.00,SSE,166,5.0,12.0,36,0.00,,,0.00,657.000000,,2013-04-04 17:52:00,
2013-04-04 12:23:00,53.0,26.0,-100.00,SE,142,5.0,13.0,35,0.00,,,0.00,799.000000,,2013-04-04 18:23:00,
2013-04-04 12:32:00,53.0,26.0,-100.00,SE,142,5.0,13.0,35,0.00,,,0.00,799.000000,,2013-04-04 18:32:00,
2013-04-04 12:43:00,53.0,26.0,-100.00,SE,142,5.0,13.0,35,0.00,,,0.00,799.000000,,2013-04-04 18:43:00,
2013-04-04 12:52:00,53.0,26.0,-100.00,SE,142,5.0,13.0,35,0.00,,,0.00,799.000000,,2013-04-04 18:52:00,
2013-04-04 13:22:00,55.0,28.0,-100.00,South,174,6.0,12.0,35,0.00,,,0.00,830.000000,,2013-04-04 19:22:00,
2013-04-04 13:32:00,55.0,28.0,-100.00,South,174,6.0,12.0,35,0.00,,,0.00,830.000000,,2013-04-04 19:32:00,
2013-04-04 13:42:00,55.0,28.0,-100.00,South,174,6.0,12.0,35,0.00,,,0.00,830.000000,,2013-04-04 19:42:00,
2013-04-04 13:52:00,55.0,28.0,-100.00,South,174,6.0,12.0,35,0.00,,,0.00,830.000000,,2013-04-04 19:52:00,
2013-04-04 14:23:00,58.0,29.0,-100.00,SE,141,5.0,14.0,33,0.00,,,0.00,862.000000,,2013-04-04 20:23:00,
2013-04-04 14:32:00,58.0,29.0,-100.00,SE,141,5.0,14.0,33,0.00,,,0.00,862.000000,,2013-04-04 20:32:00,
2013-04-04 14:42:00,58.0,29.0,-100.00,SE,141,5.0,14.0,33,0.00,,,0.00,862.000000,,2013-04-04 20:42:00,
2013-04-04 14:52:00,58.0,29.0,-100.00,SE,141,5.0,14.0,33,0.00,,,0.00,862.000000,,2013-04-04 20:52:00,
2013-04-04 15:22:00,60.0,28.0,-100.00,SSE,158,6.0,14.0,30,0.00,,,0.00,806.000000,,2013-04-04 21:22:00,
2013-04-04 15:32:00,60.0,28.0,-100.00,SSE,158,6.0,14.0,30,0.00,,,0.00,806.000000,,2013-04-04 21:32:00,
2013-04-04 15:43:00,60.0,28.0,-100.00,SSE,158,6.0,14.0,30,0.00,,,0.00,806.000000,,2013-04-04 21:43:00,
2013-04-04 15:52:00,60.0,28.0,-100.00,SSE,158,6.0,14.0,30,0.00,,,0.00,806.000000,,2013-04-04 21:52:00,
2013-04-04 16:23:00,61.0,29.0,-100.00,WSW,241,6.0,13.0,29,0.00,,,0.00,686.000000,,2013-04-04 22:23:00,
2013-04-04 16:33:00,61.0,29.0,-100.00,WSW,241,6.0,13.0,29,0.00,,,0.00,686.000000,,2013-04-04 22:33:00,
2013-04-04 16:42:00,61.0,29.0,-100.00,WSW,241,6.0,13.0,29,0.00,,,0.00,686.000000,,2013-04-04 22:42:00,
2013-04-04 16:53:00,61.0,29.0,-100.00,WSW,241,6.0,13.0,29,0.00,,,0.00,686.000000,,2013-04-04 22:53:00,
2013-04-04 17:22:00,57.0,27.0,-100.00,West,277,7.0,15.0,32,0.00,,,0.00,425.000000,,2013-04-04 23:22:00,
2013-04-04 17:32:00,57.0,27.0,-100.00,West,277,7.0,15.0,32,0.00,,,0.00,425.000000,,2013-04-04 23:32:00,
2013-04-04 17:42:00,57.0,27.0,-100.00,West,277,7.0,15.0,32,0.00,,,0.00,425.000000,,2013-04-04 23:42:00,
2013-04-04 17:52:00,57.0,27.0,-100.00,West,277,7.0,15.0,32,0.00,,,0.00,425.000000,,2013-04-04 23:52:00,
2013-04-04 18:22:00,55.0,25.0,-100.00,West,265,8.0,20.0,31,0.00,,,0.00,362.000000,,2013-04-05 00:22:00,
2013-04-04 18:32:00,55.0,25.0,-100.00,West,265,8.0,20.0,31,0.00,,,0.00,362.000000,,2013-04-05 00:32:00,
2013-04-04 18:42:00,55.0,25.0,-100.00,West,265,8.0,20.0,31,0.00,,,0.00,362.000000,,2013-04-05 00:42:00,
2013-04-04 18:52:00,55.0,25.0,-100.00,West,265,8.0,20.0,31,0.00,,,0.00,362.000000,,2013-04-05 00:52:00,
2013-04-04 19:22:00,50.0,23.0,-100.00,NW,310,10.0,19.0,34,0.00,,,0.00,118.000000,,2013-04-05 01:22:00,
2013-04-04 19:32:00,50.0,23.0,-100.00,NW,310,10.0,19.0,34,0.00,,,0.00,118.000000,,2013-04-05 01:32:00,
2013-04-04 19:42:00,50.0,23.0,-100.00,NW,310,10.0,19.0,34,0.00,,,0.00,118.000000,,2013-04-05 01:42:00,
2013-04-04 19:52:00,50.0,23.0,-100.00,NW,310,10.0,19.0,34,0.00,,,0.00,118.000000,,2013-04-05 01:52:00,
2013-04-04 20:22:00,46.0,21.0,-100.00,NW,307,11.0,26.0,36,0.00,,,0.00,11.000000,,2013-04-05 02:22:00,
2013-04-04 20:32:00,46.0,21.0,-100.00,NW,307,11.0,26.0,36,0.00,,,0.00,11.000000,,2013-04-05 02:32:00,
2013-04-04 20:42:00,46.0,21.0,-100.00,NW,307,11.0,26.0,36,0.00,,,0.00,11.000000,,2013-04-05 02:42:00,
2013-04-04 20:52:00,46.0,21.0,-100.00,NW,307,11.0,26.0,36,0.00,,,0.00,11.000000,,2013-04-05 02:52:00,
2013-04-04 21:22:00,44.0,18.0,-100.00,NW,310,11.0,23.0,35,0.00,,,0.00,0.000000,,2013-04-05 03:22:00,
2013-04-04 21:32:00,44.0,18.0,-100.00,NW,310,11.0,23.0,35,0.00,,,0.00,0.000000,,2013-04-05 03:32:00,
2013-04-04 21:43:00,44.0,18.0,-100.00,NW,310,11.0,23.0,35,0.00,,,0.00,0.000000,,2013-04-05 03:43:00,
2013-04-04 21:53:00,44.0,18.0,-100.00,NW,310,11.0,23.0,35,0.00,,,0.00,0.000000,,2013-04-05 03:53:00,
2013-04-04 22:22:00,43.0,17.0,-100.00,WNW,303,10.0,23.0,35,0.00,,,0.00,0.000000,,2013-04-05 04:22:00,
2013-04-04 22:32:00,43.0,17.0,-100.00,WNW,303,10.0,23.0,35,0.00,,,0.00,0.000000,,2013-04-05 04:32:00,
2013-04-04 22:42:00,43.0,17.0,-100.00,WNW,303,10.0,23.0,35,0.00,,,0.00,0.000000,,2013-04-05 04:42:00,
2013-04-04 22:52:00,43.0,17.0,-100.00,WNW,303,10.0,23.0,35,0.00,,,0.00,0.000000,,2013-04-05 04:52:00,
2013-04-04 23:22:00,43.0,18.0,-100.00,WNW,288,8.0,20.0,36,0.00,,,0.00,0.000000,,2013-04-05 05:22:00,
2013-04-04 23:32:00,43.0,18.0,-100.00,WNW,288,8.0,20.0,36,0.00,,,0.00,0.000000,,2013-04-05 05:32:00,
2013-04-04 23:42:00,43.0,18.0,-100.00,WNW,288,8.0,20.0,36,0.00,,,0.00,0.000000,,2013-04-05 05:42:00,
2013-04-04 23:52:00,43.0,18.0,-100.00,WNW,288,8.0,20.0,36,0.00,,,0.00,0.000000,,2013-04-05 05:52:00,